sensor_id;sensor_type;location;lat;lon;timestamp;P1;durP1;ratioP1;P2;durP2;ratioP2
7375;SDS011;3728;42.266;24.944;2023-05-20T00:02:15;9.70;;;6.00;;
7375;SDS011;3728;42.266;24.944;2023-05-20T00:04:43;6.43;;;5.43;;
7375;SDS011;3728;42.266;24.944;2023-05-20T00:07:11;10.93;;;6.20;;
7375;SDS011;3728;42.266;24.944;2023-05-20T00:09:38;6.80;;;5.90;;
7375;SDS011;3728;42.266;24.944;2023-05-20T00:12:06;7.73;;;5.93;;
7375;SDS011;3728;42.266;24.944;2023-05-20T00:14:34;6.50;;;5.80;;
7375;SDS011;3728;42.266;24.944;2023-05-20T00:17:01;11.03;;;5.90;;
7375;SDS011;3728;42.266;24.944;2023-05-20T00:19:29;6.83;;;5.70;;
7375;SDS011;3728;42.266;24.944;2023-05-20T00:21:57;6.60;;;5.60;;
7375;SDS011;3728;42.266;24.944;2023-05-20T00:24:24;7.27;;;5.03;;
7375;SDS011;3728;42.266;24.944;2023-05-20T00:26:53;10.07;;;5.30;;
7375;SDS011;3728;42.266;24.944;2023-05-20T00:29:20;8.97;;;5.17;;
7375;SDS011;3728;42.266;24.944;2023-05-20T00:31:48;7.77;;;5.37;;
7375;SDS011;3728;42.266;24.944;2023-05-20T00:34:16;7.50;;;5.70;;
7375;SDS011;3728;42.266;24.944;2023-05-20T00:36:45;9.17;;;5.57;;
7375;SDS011;3728;42.266;24.944;2023-05-20T00:39:13;10.33;;;5.30;;
7375;SDS011;3728;42.266;24.944;2023-05-20T00:41:40;7.23;;;5.80;;
7375;SDS011;3728;42.266;24.944;2023-05-20T00:44:08;7.47;;;5.57;;
7375;SDS011;3728;42.266;24.944;2023-05-20T00:46:36;6.43;;;5.43;;
7375;SDS011;3728;42.266;24.944;2023-05-20T00:49:04;5.90;;;5.30;;
7375;SDS011;3728;42.266;24.944;2023-05-20T00:51:32;6.13;;;5.40;;
7375;SDS011;3728;42.266;24.944;2023-05-20T00:53:59;6.10;;;5.50;;
7375;SDS011;3728;42.266;24.944;2023-05-20T00:56:27;8.27;;;5.30;;
7375;SDS011;3728;42.266;24.944;2023-05-20T00:58:56;7.77;;;6.07;;
7375;SDS011;3728;42.266;24.944;2023-05-20T01:01:23;6.07;;;5.47;;
7375;SDS011;3728;42.266;24.944;2023-05-20T01:03:51;7.67;;;5.83;;
7375;SDS011;3728;42.266;24.944;2023-05-20T01:06:19;6.97;;;5.90;;
7375;SDS011;3728;42.266;24.944;2023-05-20T01:08:46;8.37;;;5.23;;
7375;SDS011;3728;42.266;24.944;2023-05-20T01:11:36;7.70;;;5.97;;
7375;SDS011;3728;42.266;24.944;2023-05-20T01:14:08;9.00;;;5.93;;
7375;SDS011;3728;42.266;24.944;2023-05-20T01:16:38;6.43;;;5.77;;
7375;SDS011;3728;42.266;24.944;2023-05-20T01:19:08;8.67;;;5.97;;
7375;SDS011;3728;42.266;24.944;2023-05-20T01:21:54;10.47;;;5.70;;
7375;SDS011;3728;42.266;24.944;2023-05-20T01:24:24;6.83;;;6.13;;
7375;SDS011;3728;42.266;24.944;2023-05-20T01:26:51;9.67;;;5.83;;
7375;SDS011;3728;42.266;24.944;2023-05-20T01:29:19;6.80;;;6.10;;
7375;SDS011;3728;42.266;24.944;2023-05-20T01:31:47;10.87;;;5.47;;
7375;SDS011;3728;42.266;24.944;2023-05-20T01:34:16;8.80;;;5.40;;
7375;SDS011;3728;42.266;24.944;2023-05-20T01:36:44;8.47;;;6.10;;
7375;SDS011;3728;42.266;24.944;2023-05-20T01:39:12;10.20;;;5.63;;
7375;SDS011;3728;42.266;24.944;2023-05-20T01:41:40;7.67;;;6.37;;
7375;SDS011;3728;42.266;24.944;2023-05-20T01:44:08;11.20;;;6.13;;
7375;SDS011;3728;42.266;24.944;2023-05-20T01:46:35;9.40;;;7.03;;
7375;SDS011;3728;42.266;24.944;2023-05-20T01:49:03;7.03;;;6.33;;
7375;SDS011;3728;42.266;24.944;2023-05-20T01:51:31;7.10;;;6.40;;
7375;SDS011;3728;42.266;24.944;2023-05-20T01:54:01;7.07;;;6.20;;
7375;SDS011;3728;42.266;24.944;2023-05-20T01:56:29;8.30;;;7.13;;
7375;SDS011;3728;42.266;24.944;2023-05-20T01:58:57;8.60;;;6.93;;
7375;SDS011;3728;42.266;24.944;2023-05-20T02:01:25;10.23;;;7.10;;
7375;SDS011;3728;42.266;24.944;2023-05-20T02:03:53;9.43;;;7.00;;
7375;SDS011;3728;42.266;24.944;2023-05-20T02:06:21;11.97;;;7.43;;
7375;SDS011;3728;42.266;24.944;2023-05-20T02:08:49;8.23;;;6.60;;
7375;SDS011;3728;42.266;24.944;2023-05-20T02:11:17;13.30;;;7.37;;
7375;SDS011;3728;42.266;24.944;2023-05-20T02:13:44;8.73;;;7.47;;
7375;SDS011;3728;42.266;24.944;2023-05-20T02:16:12;8.70;;;6.80;;
7375;SDS011;3728;42.266;24.944;2023-05-20T02:18:40;8.17;;;7.33;;
7375;SDS011;3728;42.266;24.944;2023-05-20T02:21:08;10.33;;;6.97;;
7375;SDS011;3728;42.266;24.944;2023-05-20T02:23:36;8.47;;;7.37;;
7375;SDS011;3728;42.266;24.944;2023-05-20T02:26:04;8.80;;;7.90;;
7375;SDS011;3728;42.266;24.944;2023-05-20T02:28:35;10.10;;;8.23;;
7375;SDS011;3728;42.266;24.944;2023-05-20T02:31:05;8.23;;;7.30;;
7375;SDS011;3728;42.266;24.944;2023-05-20T02:33:33;9.47;;;8.20;;
7375;SDS011;3728;42.266;24.944;2023-05-20T02:36:00;10.57;;;8.17;;
7375;SDS011;3728;42.266;24.944;2023-05-20T02:38:28;8.97;;;8.07;;
7375;SDS011;3728;42.266;24.944;2023-05-20T02:40:57;8.93;;;7.63;;
7375;SDS011;3728;42.266;24.944;2023-05-20T02:43:25;7.43;;;6.73;;
7375;SDS011;3728;42.266;24.944;2023-05-20T02:45:52;11.33;;;7.33;;
7375;SDS011;3728;42.266;24.944;2023-05-20T02:48:20;8.03;;;7.00;;
7375;SDS011;3728;42.266;24.944;2023-05-20T02:50:47;9.13;;;6.73;;
7375;SDS011;3728;42.266;24.944;2023-05-20T02:53:15;10.20;;;6.53;;
7375;SDS011;3728;42.266;24.944;2023-05-20T02:55:44;11.83;;;6.80;;
7375;SDS011;3728;42.266;24.944;2023-05-20T02:58:16;9.20;;;6.73;;
7375;SDS011;3728;42.266;24.944;2023-05-20T03:00:43;7.17;;;6.33;;
7375;SDS011;3728;42.266;24.944;2023-05-20T03:03:11;7.93;;;6.27;;
7375;SDS011;3728;42.266;24.944;2023-05-20T03:05:39;9.97;;;6.10;;
7375;SDS011;3728;42.266;24.944;2023-05-20T03:08:08;9.20;;;5.70;;
7375;SDS011;3728;42.266;24.944;2023-05-20T03:10:37;10.03;;;5.80;;
7375;SDS011;3728;42.266;24.944;2023-05-20T03:13:05;7.63;;;6.30;;
7375;SDS011;3728;42.266;24.944;2023-05-20T03:15:36;11.43;;;7.03;;
7375;SDS011;3728;42.266;24.944;2023-05-20T03:18:05;10.07;;;6.73;;
7375;SDS011;3728;42.266;24.944;2023-05-20T03:20:35;10.60;;;7.03;;
7375;SDS011;3728;42.266;24.944;2023-05-20T03:23:05;7.27;;;6.13;;
7375;SDS011;3728;42.266;24.944;2023-05-20T03:25:35;18.63;;;8.20;;
7375;SDS011;3728;42.266;24.944;2023-05-20T03:28:03;17.57;;;7.43;;
7375;SDS011;3728;42.266;24.944;2023-05-20T03:30:34;15.97;;;7.43;;
7375;SDS011;3728;42.266;24.944;2023-05-20T03:33:02;9.07;;;7.00;;
7375;SDS011;3728;42.266;24.944;2023-05-20T03:35:31;8.30;;;6.50;;
7375;SDS011;3728;42.266;24.944;2023-05-20T03:38:02;9.17;;;6.97;;
7375;SDS011;3728;42.266;24.944;2023-05-20T03:40:32;12.90;;;6.70;;
7375;SDS011;3728;42.266;24.944;2023-05-20T03:43:00;12.73;;;7.40;;
7375;SDS011;3728;42.266;24.944;2023-05-20T03:45:28;10.97;;;6.60;;
7375;SDS011;3728;42.266;24.944;2023-05-20T03:48:13;13.33;;;6.57;;
7375;SDS011;3728;42.266;24.944;2023-05-20T03:50:41;11.43;;;7.10;;
7375;SDS011;3728;42.266;24.944;2023-05-20T03:53:09;13.23;;;8.77;;
7375;SDS011;3728;42.266;24.944;2023-05-20T03:55:39;9.43;;;6.10;;
7375;SDS011;3728;42.266;24.944;2023-05-20T03:58:10;9.47;;;6.30;;
7375;SDS011;3728;42.266;24.944;2023-05-20T04:00:39;9.77;;;6.43;;
7375;SDS011;3728;42.266;24.944;2023-05-20T04:03:07;8.57;;;5.80;;
7375;SDS011;3728;42.266;24.944;2023-05-20T04:05:35;13.33;;;5.73;;
7375;SDS011;3728;42.266;24.944;2023-05-20T04:08:11;14.10;;;5.47;;
7375;SDS011;3728;42.266;24.944;2023-05-20T04:10:42;11.30;;;6.17;;
7375;SDS011;3728;42.266;24.944;2023-05-20T04:13:10;14.43;;;6.33;;
7375;SDS011;3728;42.266;24.944;2023-05-20T04:15:38;8.37;;;5.80;;
7375;SDS011;3728;42.266;24.944;2023-05-20T04:18:07;11.23;;;5.97;;
7375;SDS011;3728;42.266;24.944;2023-05-20T04:20:36;7.83;;;6.00;;
7375;SDS011;3728;42.266;24.944;2023-05-20T04:23:04;7.63;;;5.57;;
7375;SDS011;3728;42.266;24.944;2023-05-20T04:25:32;9.30;;;6.47;;
7375;SDS011;3728;42.266;24.944;2023-05-20T04:28:02;9.30;;;5.63;;
7375;SDS011;3728;42.266;24.944;2023-05-20T04:30:30;8.60;;;5.97;;
7375;SDS011;3728;42.266;24.944;2023-05-20T04:32:59;9.47;;;6.20;;
7375;SDS011;3728;42.266;24.944;2023-05-20T04:35:28;9.53;;;6.00;;
7375;SDS011;3728;42.266;24.944;2023-05-20T04:38:00;7.67;;;5.87;;
7375;SDS011;3728;42.266;24.944;2023-05-20T04:40:28;8.23;;;5.77;;
7375;SDS011;3728;42.266;24.944;2023-05-20T04:42:58;12.13;;;6.20;;
7375;SDS011;3728;42.266;24.944;2023-05-20T04:45:26;9.87;;;6.00;;
7375;SDS011;3728;42.266;24.944;2023-05-20T04:47:54;6.53;;;5.80;;
7375;SDS011;3728;42.266;24.944;2023-05-20T04:50:21;9.53;;;6.43;;
7375;SDS011;3728;42.266;24.944;2023-05-20T04:52:49;7.43;;;5.60;;
7375;SDS011;3728;42.266;24.944;2023-05-20T04:55:17;7.60;;;5.73;;
7375;SDS011;3728;42.266;24.944;2023-05-20T04:57:47;9.03;;;5.50;;
7375;SDS011;3728;42.266;24.944;2023-05-20T05:00:15;6.03;;;5.47;;
7375;SDS011;3728;42.266;24.944;2023-05-20T05:02:43;8.37;;;5.73;;
7375;SDS011;3728;42.266;24.944;2023-05-20T05:05:11;8.43;;;5.67;;
7375;SDS011;3728;42.266;24.944;2023-05-20T05:07:38;16.17;;;6.00;;
7375;SDS011;3728;42.266;24.944;2023-05-20T05:10:06;13.20;;;6.33;;
7375;SDS011;3728;42.266;24.944;2023-05-20T05:12:34;11.50;;;6.40;;
7375;SDS011;3728;42.266;24.944;2023-05-20T05:15:02;9.03;;;6.50;;
7375;SDS011;3728;42.266;24.944;2023-05-20T05:17:30;7.67;;;6.10;;
7375;SDS011;3728;42.266;24.944;2023-05-20T05:19:59;8.13;;;6.23;;
7375;SDS011;3728;42.266;24.944;2023-05-20T05:22:30;9.90;;;5.93;;
7375;SDS011;3728;42.266;24.944;2023-05-20T05:24:57;11.60;;;5.77;;
7375;SDS011;3728;42.266;24.944;2023-05-20T05:27:25;7.03;;;5.93;;
7375;SDS011;3728;42.266;24.944;2023-05-20T05:29:53;7.20;;;5.80;;
7375;SDS011;3728;42.266;24.944;2023-05-20T05:32:21;6.80;;;6.10;;
7375;SDS011;3728;42.266;24.944;2023-05-20T05:34:49;7.43;;;6.03;;
7375;SDS011;3728;42.266;24.944;2023-05-20T05:37:17;11.17;;;6.53;;
7375;SDS011;3728;42.266;24.944;2023-05-20T05:39:44;7.43;;;6.17;;
7375;SDS011;3728;42.266;24.944;2023-05-20T05:42:12;6.13;;;5.53;;
7375;SDS011;3728;42.266;24.944;2023-05-20T05:44:40;8.70;;;5.73;;
7375;SDS011;3728;42.266;24.944;2023-05-20T05:47:07;8.80;;;6.30;;
7375;SDS011;3728;42.266;24.944;2023-05-20T05:49:35;7.63;;;6.00;;
7375;SDS011;3728;42.266;24.944;2023-05-20T05:52:03;6.67;;;5.40;;
7375;SDS011;3728;42.266;24.944;2023-05-20T05:54:31;6.50;;;5.80;;
7375;SDS011;3728;42.266;24.944;2023-05-20T05:56:59;9.03;;;6.13;;
7375;SDS011;3728;42.266;24.944;2023-05-20T05:59:29;9.60;;;6.27;;
7375;SDS011;3728;42.266;24.944;2023-05-20T06:01:57;7.90;;;6.47;;
7375;SDS011;3728;42.266;24.944;2023-05-20T06:04:24;12.13;;;6.23;;
7375;SDS011;3728;42.266;24.944;2023-05-20T06:06:54;9.93;;;6.60;;
7375;SDS011;3728;42.266;24.944;2023-05-20T06:09:22;7.60;;;6.00;;
7375;SDS011;3728;42.266;24.944;2023-05-20T06:11:50;10.33;;;6.40;;
7375;SDS011;3728;42.266;24.944;2023-05-20T06:14:19;8.10;;;6.27;;
7375;SDS011;3728;42.266;24.944;2023-05-20T06:16:46;11.57;;;6.63;;
7375;SDS011;3728;42.266;24.944;2023-05-20T06:19:16;11.97;;;6.23;;
7375;SDS011;3728;42.266;24.944;2023-05-20T06:21:44;9.57;;;6.60;;
7375;SDS011;3728;42.266;24.944;2023-05-20T06:24:12;9.10;;;7.13;;
7375;SDS011;3728;42.266;24.944;2023-05-20T06:26:39;12.40;;;7.23;;
7375;SDS011;3728;42.266;24.944;2023-05-20T06:29:07;13.90;;;7.73;;
7375;SDS011;3728;42.266;24.944;2023-05-20T06:31:34;13.77;;;7.93;;
7375;SDS011;3728;42.266;24.944;2023-05-20T06:34:02;11.07;;;6.73;;
7375;SDS011;3728;42.266;24.944;2023-05-20T06:36:30;10.17;;;7.73;;
7375;SDS011;3728;42.266;24.944;2023-05-20T06:38:59;10.97;;;6.97;;
7375;SDS011;3728;42.266;24.944;2023-05-20T06:41:27;6.67;;;5.87;;
7375;SDS011;3728;42.266;24.944;2023-05-20T06:43:55;11.10;;;6.73;;
7375;SDS011;3728;42.266;24.944;2023-05-20T06:46:48;10.90;;;7.00;;
7375;SDS011;3728;42.266;24.944;2023-05-20T06:49:17;9.17;;;6.77;;
7375;SDS011;3728;42.266;24.944;2023-05-20T06:51:48;10.13;;;6.43;;
7375;SDS011;3728;42.266;24.944;2023-05-20T06:54:16;16.43;;;7.27;;
7375;SDS011;3728;42.266;24.944;2023-05-20T06:56:44;7.93;;;6.30;;
7375;SDS011;3728;42.266;24.944;2023-05-20T06:59:13;9.03;;;6.63;;
7375;SDS011;3728;42.266;24.944;2023-05-20T07:01:41;10.63;;;5.70;;
7375;SDS011;3728;42.266;24.944;2023-05-20T07:04:10;9.37;;;6.00;;
7375;SDS011;3728;42.266;24.944;2023-05-20T07:06:40;9.23;;;6.37;;
7375;SDS011;3728;42.266;24.944;2023-05-20T07:09:08;11.83;;;6.37;;
7375;SDS011;3728;42.266;24.944;2023-05-20T07:11:36;7.87;;;6.40;;
7375;SDS011;3728;42.266;24.944;2023-05-20T07:14:04;11.63;;;6.00;;
7375;SDS011;3728;42.266;24.944;2023-05-20T07:16:34;10.90;;;5.47;;
7375;SDS011;3728;42.266;24.944;2023-05-20T07:19:02;8.48;;;5.45;;
7375;SDS011;3728;42.266;24.944;2023-05-20T07:21:32;7.63;;;5.50;;
7375;SDS011;3728;42.266;24.944;2023-05-20T07:24:19;8.35;;;5.70;;
7375;SDS011;3728;42.266;24.944;2023-05-20T07:26:47;8.45;;;5.82;;
7375;SDS011;3728;42.266;24.944;2023-05-20T07:29:14;8.93;;;6.05;;
7375;SDS011;3728;42.266;24.944;2023-05-20T07:31:42;9.43;;;5.90;;
7375;SDS011;3728;42.266;24.944;2023-05-20T07:34:10;6.93;;;5.55;;
7375;SDS011;3728;42.266;24.944;2023-05-20T07:36:39;11.82;;;6.55;;
7375;SDS011;3728;42.266;24.944;2023-05-20T07:39:07;21.23;;;15.18;;
7375;SDS011;3728;42.266;24.944;2023-05-20T07:41:40;12.68;;;6.30;;
7375;SDS011;3728;42.266;24.944;2023-05-20T07:44:08;7.00;;;6.05;;
7375;SDS011;3728;42.266;24.944;2023-05-20T07:46:38;10.00;;;6.40;;
7375;SDS011;3728;42.266;24.944;2023-05-20T07:49:09;12.13;;;6.43;;
7375;SDS011;3728;42.266;24.944;2023-05-20T07:51:38;9.18;;;5.85;;
7375;SDS011;3728;42.266;24.944;2023-05-20T07:54:06;7.93;;;6.38;;
7375;SDS011;3728;42.266;24.944;2023-05-20T07:56:35;11.38;;;6.18;;
7375;SDS011;3728;42.266;24.944;2023-05-20T07:59:03;7.35;;;5.78;;
7375;SDS011;3728;42.266;24.944;2023-05-20T08:01:36;11.20;;;5.75;;
7375;SDS011;3728;42.266;24.944;2023-05-20T08:04:09;9.05;;;5.78;;
7375;SDS011;3728;42.266;24.944;2023-05-20T08:06:38;5.78;;;5.28;;
7375;SDS011;3728;42.266;24.944;2023-05-20T08:09:14;7.75;;;5.30;;
7375;SDS011;3728;42.266;24.944;2023-05-20T08:11:47;6.80;;;5.30;;
7375;SDS011;3728;42.266;24.944;2023-05-20T08:14:16;9.73;;;4.72;;
7375;SDS011;3728;42.266;24.944;2023-05-20T08:16:47;9.13;;;5.85;;
7375;SDS011;3728;42.266;24.944;2023-05-20T08:19:18;14.82;;;5.80;;
7375;SDS011;3728;42.266;24.944;2023-05-20T08:21:47;42.42;;;7.60;;
7375;SDS011;3728;42.266;24.944;2023-05-20T08:24:15;18.00;;;6.18;;
7375;SDS011;3728;42.266;24.944;2023-05-20T08:26:43;15.48;;;6.43;;
7375;SDS011;3728;42.266;24.944;2023-05-20T08:29:11;31.55;;;9.27;;
7375;SDS011;3728;42.266;24.944;2023-05-20T08:31:39;14.57;;;7.22;;
7375;SDS011;3728;42.266;24.944;2023-05-20T08:34:07;18.90;;;5.72;;
7375;SDS011;3728;42.266;24.944;2023-05-20T08:36:35;9.48;;;4.75;;
7375;SDS011;3728;42.266;24.944;2023-05-20T08:39:03;9.50;;;4.32;;
7375;SDS011;3728;42.266;24.944;2023-05-20T08:41:30;72.10;;;9.07;;
7375;SDS011;3728;42.266;24.944;2023-05-20T08:43:58;5.65;;;4.20;;
7375;SDS011;3728;42.266;24.944;2023-05-20T08:46:28;50.38;;;7.70;;
7375;SDS011;3728;42.266;24.944;2023-05-20T08:48:58;5.50;;;3.97;;
7375;SDS011;3728;42.266;24.944;2023-05-20T08:51:26;10.60;;;4.65;;
7375;SDS011;3728;42.266;24.944;2023-05-20T08:53:54;12.77;;;5.03;;
7375;SDS011;3728;42.266;24.944;2023-05-20T08:56:21;4.65;;;3.75;;
7375;SDS011;3728;42.266;24.944;2023-05-20T08:58:56;4.97;;;4.25;;
7375;SDS011;3728;42.266;24.944;2023-05-20T09:01:23;5.10;;;3.95;;
7375;SDS011;3728;42.266;24.944;2023-05-20T09:03:51;8.80;;;4.53;;
7375;SDS011;3728;42.266;24.944;2023-05-20T09:06:19;5.45;;;4.07;;
7375;SDS011;3728;42.266;24.944;2023-05-20T09:08:49;5.20;;;3.67;;
7375;SDS011;3728;42.266;24.944;2023-05-20T09:11:18;4.65;;;3.80;;
7375;SDS011;3728;42.266;24.944;2023-05-20T09:13:49;6.05;;;4.80;;
7375;SDS011;3728;42.266;24.944;2023-05-20T09:16:16;12.90;;;11.02;;
7375;SDS011;3728;42.266;24.944;2023-05-20T09:18:45;4.63;;;4.10;;
7375;SDS011;3728;42.266;24.944;2023-05-20T09:21:13;8.48;;;4.30;;
7375;SDS011;3728;42.266;24.944;2023-05-20T09:23:45;8.23;;;4.35;;
7375;SDS011;3728;42.266;24.944;2023-05-20T09:26:16;13.18;;;4.78;;
7375;SDS011;3728;42.266;24.944;2023-05-20T09:28:44;6.72;;;4.13;;
7375;SDS011;3728;42.266;24.944;2023-05-20T09:31:12;6.82;;;4.38;;
7375;SDS011;3728;42.266;24.944;2023-05-20T09:33:42;6.55;;;3.88;;
7375;SDS011;3728;42.266;24.944;2023-05-20T09:36:11;4.88;;;4.43;;
7375;SDS011;3728;42.266;24.944;2023-05-20T09:38:41;5.30;;;4.53;;
7375;SDS011;3728;42.266;24.944;2023-05-20T09:41:13;5.45;;;4.78;;
7375;SDS011;3728;42.266;24.944;2023-05-20T09:43:40;5.20;;;4.70;;
7375;SDS011;3728;42.266;24.944;2023-05-20T09:46:09;5.50;;;4.63;;
7375;SDS011;3728;42.266;24.944;2023-05-20T09:48:39;7.97;;;4.13;;
7375;SDS011;3728;42.266;24.944;2023-05-20T09:51:07;6.78;;;4.60;;
7375;SDS011;3728;42.266;24.944;2023-05-20T09:53:36;5.20;;;4.70;;
7375;SDS011;3728;42.266;24.944;2023-05-20T09:56:04;5.85;;;4.75;;
7375;SDS011;3728;42.266;24.944;2023-05-20T09:58:34;6.80;;;4.97;;
7375;SDS011;3728;42.266;24.944;2023-05-20T10:01:02;6.13;;;4.35;;
7375;SDS011;3728;42.266;24.944;2023-05-20T10:03:31;5.68;;;4.20;;
7375;SDS011;3728;42.266;24.944;2023-05-20T10:08:57;6.28;;;3.65;;
7375;SDS011;3728;42.266;24.944;2023-05-20T10:11:56;6.45;;;3.53;;
7375;SDS011;3728;42.266;24.944;2023-05-20T10:20:27;4.13;;;3.33;;
7375;SDS011;3728;42.266;24.944;2023-05-20T10:22:56;8.27;;;3.45;;
7375;SDS011;3728;42.266;24.944;2023-05-20T10:25:27;7.55;;;3.15;;
7375;SDS011;3728;42.266;24.944;2023-05-20T10:28:06;5.00;;;3.00;;
7375;SDS011;3728;42.266;24.944;2023-05-20T10:30:47;8.95;;;3.80;;
7375;SDS011;3728;42.266;24.944;2023-05-20T10:33:16;6.13;;;3.30;;
7375;SDS011;3728;42.266;24.944;2023-05-20T10:35:49;4.07;;;3.05;;
7375;SDS011;3728;42.266;24.944;2023-05-20T10:38:21;8.68;;;3.28;;
7375;SDS011;3728;42.266;24.944;2023-05-20T10:40:49;12.23;;;3.75;;
7375;SDS011;3728;42.266;24.944;2023-05-20T10:43:27;4.93;;;3.13;;
7375;SDS011;3728;42.266;24.944;2023-05-20T10:45:56;5.03;;;2.80;;
7375;SDS011;3728;42.266;24.944;2023-05-20T10:48:29;5.07;;;3.30;;
7375;SDS011;3728;42.266;24.944;2023-05-20T10:50:59;5.20;;;2.88;;
7375;SDS011;3728;42.266;24.944;2023-05-20T10:53:38;5.78;;;3.10;;
7375;SDS011;3728;42.266;24.944;2023-05-20T10:56:17;20.02;;;4.07;;
7375;SDS011;3728;42.266;24.944;2023-05-20T10:58:49;6.80;;;3.13;;
7375;SDS011;3728;42.266;24.944;2023-05-20T11:01:24;10.55;;;4.05;;
7375;SDS011;3728;42.266;24.944;2023-05-20T11:03:53;6.55;;;3.40;;
7375;SDS011;3728;42.266;24.944;2023-05-20T11:06:26;8.15;;;3.35;;
7375;SDS011;3728;42.266;24.944;2023-05-20T11:08:55;6.35;;;3.25;;
7375;SDS011;3728;42.266;24.944;2023-05-20T11:11:32;9.15;;;3.35;;
7375;SDS011;3728;42.266;24.944;2023-05-20T11:14:00;3.33;;;3.03;;
7375;SDS011;3728;42.266;24.944;2023-05-20T11:16:28;5.85;;;3.50;;
7375;SDS011;3728;42.266;24.944;2023-05-20T11:18:56;4.50;;;3.03;;
7375;SDS011;3728;42.266;24.944;2023-05-20T11:21:25;4.47;;;3.30;;
7375;SDS011;3728;42.266;24.944;2023-05-20T11:23:52;3.95;;;2.95;;
7375;SDS011;3728;42.266;24.944;2023-05-20T11:26:20;6.88;;;3.25;;
7375;SDS011;3728;42.266;24.944;2023-05-20T11:28:47;5.30;;;3.15;;
7375;SDS011;3728;42.266;24.944;2023-05-20T11:31:15;4.72;;;3.28;;
7375;SDS011;3728;42.266;24.944;2023-05-20T11:33:44;3.72;;;3.22;;
7375;SDS011;3728;42.266;24.944;2023-05-20T11:36:12;4.03;;;3.00;;
7375;SDS011;3728;42.266;24.944;2023-05-20T11:38:53;5.13;;;3.33;;
7375;SDS011;3728;42.266;24.944;2023-05-20T11:41:25;3.67;;;3.22;;
7375;SDS011;3728;42.266;24.944;2023-05-20T11:43:56;5.32;;;3.78;;
7375;SDS011;3728;42.266;24.944;2023-05-20T11:46:27;7.35;;;3.78;;
7375;SDS011;3728;42.266;24.944;2023-05-20T11:48:56;6.28;;;3.35;;
7375;SDS011;3728;42.266;24.944;2023-05-20T11:51:28;3.92;;;3.50;;
7375;SDS011;3728;42.266;24.944;2023-05-20T11:54:03;6.65;;;3.67;;
7375;SDS011;3728;42.266;24.944;2023-05-20T11:56:33;5.65;;;3.47;;
7375;SDS011;3728;42.266;24.944;2023-05-20T11:59:03;4.13;;;3.63;;
7375;SDS011;3728;42.266;24.944;2023-05-20T12:01:32;4.60;;;3.33;;
7375;SDS011;3728;42.266;24.944;2023-05-20T12:04:09;3.50;;;3.20;;
7375;SDS011;3728;42.266;24.944;2023-05-20T12:06:40;6.97;;;3.40;;
7375;SDS011;3728;42.266;24.944;2023-05-20T12:09:12;5.38;;;3.42;;
7375;SDS011;3728;42.266;24.944;2023-05-20T12:11:43;5.60;;;3.17;;
7375;SDS011;3728;42.266;24.944;2023-05-20T12:14:11;4.10;;;3.40;;
7375;SDS011;3728;42.266;24.944;2023-05-20T12:16:38;5.80;;;3.20;;
7375;SDS011;3728;42.266;24.944;2023-05-20T12:19:06;9.43;;;3.55;;
7375;SDS011;3728;42.266;24.944;2023-05-20T12:21:35;7.15;;;3.90;;
7375;SDS011;3728;42.266;24.944;2023-05-20T12:24:03;5.20;;;3.65;;
7375;SDS011;3728;42.266;24.944;2023-05-20T12:26:32;10.68;;;3.72;;
7375;SDS011;3728;42.266;24.944;2023-05-20T12:29:01;8.32;;;3.60;;
7375;SDS011;3728;42.266;24.944;2023-05-20T12:31:28;4.53;;;3.60;;
7375;SDS011;3728;42.266;24.944;2023-05-20T12:34:00;9.00;;;3.90;;
7375;SDS011;3728;42.266;24.944;2023-05-20T12:36:27;6.85;;;3.72;;
7375;SDS011;3728;42.266;24.944;2023-05-20T12:38:55;8.75;;;4.05;;
7375;SDS011;3728;42.266;24.944;2023-05-20T12:41:26;9.85;;;3.90;;
7375;SDS011;3728;42.266;24.944;2023-05-20T12:43:53;7.30;;;3.72;;
7375;SDS011;3728;42.266;24.944;2023-05-20T12:46:21;9.80;;;3.42;;
7375;SDS011;3728;42.266;24.944;2023-05-20T12:48:49;29.40;;;5.95;;
7375;SDS011;3728;42.266;24.944;2023-05-20T12:51:17;9.10;;;3.95;;
7375;SDS011;3728;42.266;24.944;2023-05-20T12:53:45;6.35;;;3.42;;
7375;SDS011;3728;42.266;24.944;2023-05-20T12:56:13;6.43;;;3.15;;
7375;SDS011;3728;42.266;24.944;2023-05-20T12:58:43;7.50;;;3.55;;
7375;SDS011;3728;42.266;24.944;2023-05-20T13:01:11;5.63;;;3.40;;
7375;SDS011;3728;42.266;24.944;2023-05-20T13:03:39;5.55;;;3.63;;
7375;SDS011;3728;42.266;24.944;2023-05-20T13:06:07;17.55;;;5.05;;
7375;SDS011;3728;42.266;24.944;2023-05-20T13:08:34;5.55;;;3.92;;
7375;SDS011;3728;42.266;24.944;2023-05-20T13:11:02;14.10;;;4.50;;
7375;SDS011;3728;42.266;24.944;2023-05-20T13:13:30;10.45;;;3.90;;
7375;SDS011;3728;42.266;24.944;2023-05-20T13:16:18;9.07;;;4.07;;
7375;SDS011;3728;42.266;24.944;2023-05-20T13:18:46;8.07;;;3.47;;
7375;SDS011;3728;42.266;24.944;2023-05-20T13:21:14;3.85;;;3.20;;
7375;SDS011;3728;42.266;24.944;2023-05-20T13:23:42;17.05;;;4.20;;
7375;SDS011;3728;42.266;24.944;2023-05-20T13:26:10;4.55;;;3.33;;
7375;SDS011;3728;42.266;24.944;2023-05-20T13:28:37;42.10;;;7.65;;
7375;SDS011;3728;42.266;24.944;2023-05-20T13:31:07;6.22;;;4.00;;
7375;SDS011;3728;42.266;24.944;2023-05-20T13:33:44;8.63;;;3.70;;
7375;SDS011;3728;42.266;24.944;2023-05-20T13:36:13;6.38;;;3.70;;
7375;SDS011;3728;42.266;24.944;2023-05-20T13:38:49;11.27;;;3.97;;
7375;SDS011;3728;42.266;24.944;2023-05-20T13:41:17;6.20;;;3.22;;
7375;SDS011;3728;42.266;24.944;2023-05-20T13:43:44;11.57;;;4.03;;
7375;SDS011;3728;42.266;24.944;2023-05-20T13:46:15;6.25;;;4.00;;
7375;SDS011;3728;42.266;24.944;2023-05-20T13:48:43;10.65;;;3.70;;
7375;SDS011;3728;42.266;24.944;2023-05-20T13:51:12;4.10;;;3.38;;
7375;SDS011;3728;42.266;24.944;2023-05-20T13:53:40;6.32;;;3.20;;
7375;SDS011;3728;42.266;24.944;2023-05-20T13:56:07;7.47;;;3.92;;
7375;SDS011;3728;42.266;24.944;2023-05-20T13:58:35;9.18;;;3.13;;
7375;SDS011;3728;42.266;24.944;2023-05-20T14:01:03;4.40;;;3.70;;
7375;SDS011;3728;42.266;24.944;2023-05-20T14:03:32;6.75;;;3.42;;
7375;SDS011;3728;42.266;24.944;2023-05-20T14:06:05;8.10;;;3.60;;
7375;SDS011;3728;42.266;24.944;2023-05-20T14:08:34;4.82;;;3.17;;
7375;SDS011;3728;42.266;24.944;2023-05-20T14:11:03;3.67;;;3.38;;
7375;SDS011;3728;42.266;24.944;2023-05-20T14:13:31;9.02;;;4.03;;
7375;SDS011;3728;42.266;24.944;2023-05-20T14:15:58;7.65;;;3.45;;
7375;SDS011;3728;42.266;24.944;2023-05-20T14:18:26;6.18;;;3.25;;
7375;SDS011;3728;42.266;24.944;2023-05-20T14:20:54;3.58;;;3.10;;
7375;SDS011;3728;42.266;24.944;2023-05-20T14:23:23;13.80;;;7.40;;
7375;SDS011;3728;42.266;24.944;2023-05-20T14:25:51;10.23;;;7.13;;
7375;SDS011;3728;42.266;24.944;2023-05-20T14:28:19;8.18;;;5.68;;
7375;SDS011;3728;42.266;24.944;2023-05-20T14:30:47;4.97;;;3.58;;
7375;SDS011;3728;42.266;24.944;2023-05-20T14:33:15;7.78;;;3.63;;
7375;SDS011;3728;42.266;24.944;2023-05-20T14:35:43;7.70;;;3.60;;
7375;SDS011;3728;42.266;24.944;2023-05-20T14:38:11;6.32;;;4.03;;
7375;SDS011;3728;42.266;24.944;2023-05-20T14:40:38;7.13;;;4.28;;
7375;SDS011;3728;42.266;24.944;2023-05-20T14:43:06;5.95;;;3.90;;
7375;SDS011;3728;42.266;24.944;2023-05-20T14:45:36;7.65;;;3.60;;
7375;SDS011;3728;42.266;24.944;2023-05-20T14:48:04;5.05;;;3.50;;
7375;SDS011;3728;42.266;24.944;2023-05-20T14:50:32;7.85;;;3.65;;
7375;SDS011;3728;42.266;24.944;2023-05-20T14:53:01;4.88;;;3.28;;
7375;SDS011;3728;42.266;24.944;2023-05-20T14:55:31;6.43;;;3.30;;
7375;SDS011;3728;42.266;24.944;2023-05-20T14:58:05;7.28;;;4.10;;
7375;SDS011;3728;42.266;24.944;2023-05-20T15:00:34;5.00;;;3.42;;
7375;SDS011;3728;42.266;24.944;2023-05-20T15:03:03;13.27;;;3.90;;
7375;SDS011;3728;42.266;24.944;2023-05-20T15:05:31;7.72;;;4.75;;
7375;SDS011;3728;42.266;24.944;2023-05-20T15:07:59;5.50;;;3.53;;
7375;SDS011;3728;42.266;24.944;2023-05-20T15:10:30;14.18;;;4.28;;
7375;SDS011;3728;42.266;24.944;2023-05-20T15:13:00;7.53;;;3.72;;
7375;SDS011;3728;42.266;24.944;2023-05-20T15:15:27;9.45;;;3.80;;
7375;SDS011;3728;42.266;24.944;2023-05-20T15:17:56;8.80;;;4.10;;
7375;SDS011;3728;42.266;24.944;2023-05-20T15:20:27;5.95;;;3.63;;